地図

経路データ

SID SEASON NUMBER BASIN SUBBASIN NAME ISO_TIME NATURE LAT LON WMO_WIND WMO_PRES WMO_AGENCY TRACK_TYPE DIST2LAND LANDFALL IFLAG USA_AGENCY USA_ATCF_ID USA_LAT USA_LON USA_RECORD USA_STATUS USA_WIND USA_PRES USA_SSHS USA_R34_NE USA_R34_SE USA_R34_SW USA_R34_NW USA_R50_NE USA_R50_SE USA_R50_SW USA_R50_NW USA_R64_NE USA_R64_SE USA_R64_SW USA_R64_NW USA_POCI USA_ROCI USA_RMW USA_EYE TOKYO_LAT TOKYO_LON TOKYO_GRADE TOKYO_WIND TOKYO_PRES TOKYO_R50_DIR TOKYO_R50_LONG TOKYO_R50_SHORT TOKYO_R30_DIR TOKYO_R30_LONG TOKYO_R30_SHORT TOKYO_LAND CMA_LAT CMA_LON CMA_CAT CMA_WIND CMA_PRES HKO_LAT HKO_LON HKO_CAT HKO_WIND HKO_PRES NEWDELHI_LAT NEWDELHI_LON NEWDELHI_GRADE NEWDELHI_WIND NEWDELHI_PRES NEWDELHI_CI NEWDELHI_DP NEWDELHI_POCI REUNION_LAT REUNION_LON REUNION_TYPE REUNION_WIND REUNION_PRES REUNION_TNUM REUNION_CI REUNION_RMW REUNION_R34_NE REUNION_R34_SE REUNION_R34_SW REUNION_R34_NW REUNION_R50_NE REUNION_R50_SE REUNION_R50_SW REUNION_R50_NW REUNION_R64_NE REUNION_R64_SE REUNION_R64_SW REUNION_R64_NW BOM_LAT BOM_LON BOM_TYPE BOM_WIND BOM_PRES BOM_TNUM BOM_CI BOM_RMW BOM_R34_NE BOM_R34_SE BOM_R34_SW BOM_R34_NW BOM_R50_NE BOM_R50_SE BOM_R50_SW BOM_R50_NW BOM_R64_NE BOM_R64_SE BOM_R64_SW BOM_R64_NW BOM_ROCI BOM_POCI BOM_EYE BOM_POS_METHOD BOM_PRES_METHOD NADI_LAT NADI_LON NADI_CAT NADI_WIND NADI_PRES WELLINGTON_LAT WELLINGTON_LON WELLINGTON_WIND WELLINGTON_PRES DS824_LAT DS824_LON DS824_STAGE DS824_WIND DS824_PRES TD9636_LAT TD9636_LON TD9636_STAGE TD9636_WIND TD9636_PRES TD9635_LAT TD9635_LON TD9635_WIND TD9635_PRES TD9635_ROCI NEUMANN_LAT NEUMANN_LON NEUMANN_CLASS NEUMANN_WIND NEUMANN_PRES MLC_LAT MLC_LON MLC_CLASS MLC_WIND MLC_PRES USA_GUST BOM_GUST BOM_GUST_PER REUNION_GUST REUNION_GUST_PER USA_SEAHGT USA_SEARAD_NE USA_SEARAD_SE USA_SEARAD_SW USA_SEARAD_NW STORM_SPEED STORM_DIR
1921092S14151 1921 20 SP EA NOT_NAMED 1921-04-01 23:00:00 NR -14.1000 150.500 bom main 380 380 ______O_______ -1 -14.1000 150.500 5 190
1921092S14151 1921 20 SP EA NOT_NAMED 1921-04-02 00:00:00 TS -14.1778 150.480 main 392 392 ______P__O____ -1 -14.1667 150.469 -14.2000 150.500 TC 4 201
1921092S14151 1921 20 SP EA NOT_NAMED 1921-04-02 03:00:00 TS -14.3794 150.394 main 414 414 ______P__P____ -1 -14.3677 150.382 -14.3970 150.411 TC 4 200
1921092S14151 1921 20 SP EA NOT_NAMED 1921-04-02 06:00:00 TS -14.5819 150.325 main 436 436 ______P__P____ -1 -14.5720 150.315 -14.5951 150.338 TC 4 194
1921092S14151 1921 20 SP EA NOT_NAMED 1921-04-02 09:00:00 TS -14.7888 150.289 main 459 459 ______P__P____ -1 -14.7819 150.283 -14.7957 150.295 TC 4 183
1921092S14151 1921 20 SP EA NOT_NAMED 1921-04-02 12:00:00 TS -15.0000 150.300 bom main 481 481 ______O__O____ -1 -15.0000 150.300 -15.0000 150.300 TC 4 170
1921092S14151 1921 20 SP EA NOT_NAMED 1921-04-02 15:00:00 TS -15.2172 150.368 main 503 503 ______P__P____ -1 -15.2264 150.375 -15.2080 150.361 TC 5 158
1921092S14151 1921 20 SP EA NOT_NAMED 1921-04-02 18:00:00 TS -15.4337 150.477 main 520 510 ______P__P____ -1 -15.4527 150.490 -15.4148 150.463 TC 5 152
1921092S14151 1921 20 SP EA NOT_NAMED 1921-04-02 21:00:00 TS -15.6410 150.601 main 520 516 ______P__P____ -1 -15.6679 150.619 -15.6141 150.583 TC 5 150
1921092S14151 1921 20 SP EA NOT_NAMED 1921-04-02 23:00:00 TS -15.7700 150.681 bom main 521 521 ______O__P____ -1 -15.8000 150.700 -15.7399 150.663 TC 4 150
1921092S14151 1921 20 SP EA NOT_NAMED 1921-04-03 00:00:00 TS -15.8256 150.713 main 521 518 ______P__O____ -1 -15.8513 150.726 -15.8000 150.700 TC 3 152
1921092S14151 1921 20 SP EA NOT_NAMED 1921-04-03 03:00:00 TS -15.9581 150.779 main 519 510 ______P__P____ -1 -15.9790 150.792 -15.9373 150.766 TC 3 155
1921092S14151 1921 20 SP EA NOT_NAMED 1921-04-03 06:00:00 TS -16.0637 150.829 main 510 510 ______P__P____ -1 -16.0774 150.841 -16.0499 150.818 TC 2 157
1921092S14151 1921 20 SP EA NOT_NAMED 1921-04-03 09:00:00 TS -16.1539 150.867 main 506 506 ______P__P____ -1 -16.1593 150.878 -16.1485 150.857 TC 2 159
1921092S14151 1921 20 SP EA NOT_NAMED 1921-04-03 12:00:00 TS -16.2406 150.897 main 506 496 ______P__P____ -1 -16.2376 150.905 -16.2436 150.888 TC 2 163
1921092S14151 1921 20 SP EA NOT_NAMED 1921-04-03 15:00:00 TS -16.3354 150.922 main 496 487 ______P__P____ -1 -16.3250 150.929 -16.3458 150.914 TC 2 169
1921092S14151 1921 20 SP EA NOT_NAMED 1921-04-03 18:00:00 TS -16.4499 150.946 main 487 474 ______P__P____ -1 -16.4343 150.952 -16.4656 150.940 TC 3 169
1921092S14151 1921 20 SP EA NOT_NAMED 1921-04-03 21:00:00 TS -16.5959 150.973 main 474 464 ______P__P____ -1 -16.5783 150.978 -16.6134 150.967 TC 3 173
1921092S14151 1921 20 SP EA NOT_NAMED 1921-04-03 23:00:00 TS -16.7164 150.994 bom main 464 455 ______O__P____ -1 -16.7000 151.000 -16.7329 150.988 TC 4 167
1921092S14151 1921 20 SP EA NOT_NAMED 1921-04-04 00:00:00 TS -16.7887 151.010 main 455 441 ______P__O____ -1 -16.7775 151.020 -16.8000 151.000 TC 5 166
1921092S14151 1921 20 SP EA NOT_NAMED 1921-04-04 03:00:00 TS -17.0377 151.072 main 441 413 ______P__P____ -1 -17.0332 151.082 -17.0422 151.062 TC 5 167
1921092S14151 1921 20 SP EA NOT_NAMED 1921-04-04 06:00:00 TS -17.3131 151.131 main 413 393 ______P__P____ -1 -17.3136 151.140 -17.3125 151.122 TC 6 170
1921092S14151 1921 20 SP EA NOT_NAMED 1921-04-04 09:00:00 TS -17.6036 151.177 main 393 376 ______P__P____ -1 -17.6056 151.183 -17.6016 151.171 TC 6 173
1921092S14151 1921 20 SP EA NOT_NAMED 1921-04-04 11:00:00 TS -17.8000 151.197 bom main 376 368 ______O__P____ -1 -17.8000 151.200 -17.8001 151.193 TC 6 0
1921092S14151 1921 20 SP EA NOT_NAMED 1921-04-04 12:00:00 TS -17.8870 151.203 main 368 352 ______P__O____ -1 -17.8741 151.207 -17.9000 151.200 TC 5 0
1921092S14151 1921 20 SP EA NOT_NAMED 1921-04-04 15:00:00 TS -18.1223 151.204 main 352 329 ______P__P____ -1 -18.0891 151.212 -18.1555 151.195 TC 5 183
1921092S14151 1921 20 SP EA NOT_NAMED 1921-04-04 18:00:00 TS -18.3757 151.182 main 329 300 ______P__P____ -1 -18.3278 151.194 -18.4236 151.170 TC 6 185
1921092S14151 1921 20 SP EA NOT_NAMED 1921-04-04 21:00:00 TS -18.6825 151.141 main 300 287 ______P__P____ -1 -18.6351 151.148 -18.7299 151.135 TC 7 187
1921092S14151 1921 20 SP EA NOT_NAMED 1921-04-04 23:00:00 TS -18.9340 151.105 bom main 287 275 ______O__P____ -1 -18.9000 151.100 -18.9679 151.111 TC 8 188
1921092S14151 1921 20 SP EA NOT_NAMED 1921-04-05 00:00:00 TS -19.0937 151.086 main 275 241 ______P__O____ -1 -19.0874 151.071 -19.1000 151.100 TC 11 190
1921092S14151 1921 20 SP EA NOT_NAMED 1921-04-05 03:00:00 TS -19.6701 150.976 main 236 188 ______P__P____ -1 -19.7483 150.960 -19.5920 150.991 TC 13 191
1921092S14151 1921 20 SP EA NOT_NAMED 1921-04-05 06:00:00 TS -20.3326 150.841 main 188 150 ______P__P____ -1 -20.4952 150.821 -20.1700 150.860 TC 14 191
1921092S14151 1921 20 SP EA NOT_NAMED 1921-04-05 09:00:00 TS -21.0310 150.699 main 150 78 ______P__P____ -1 -21.2482 150.666 -20.8137 150.732 TC 14 190
1921092S14151 1921 20 SP EA NOT_NAMED 1921-04-05 12:00:00 TS -21.7149 150.570 main 78 33 ______P__P____ -1 -21.9275 150.505 -21.5024 150.634 TC 14 189
1921092S14151 1921 20 SP EA NOT_NAMED 1921-04-05 14:00:00 TS -22.1382 150.500 970 bom main 33 11 ______O__P____ -1 -22.3000 150.400 970 -21.9765 150.600 TC 13 189
1921092S14151 1921 20 SP EA NOT_NAMED 1921-04-05 15:00:00 TS -22.3319 150.467 main 11 0 ______P__P____ -1 -22.4479 150.340 971 -22.2158 150.594 TC 12 186
1921092S14151 1921 20 SP EA NOT_NAMED 1921-04-05 16:00:00 TS -22.5278 150.449 bom main 10 0 ______I__P____ -1 -22.6000 150.300 973 -22.4555 150.598 TC 13 0
1921092S14151 1921 20 SP EA NOT_NAMED 1921-04-05 18:00:00 TS -22.9552 150.487 main 0 0 ______P__P____ -1 -22.9769 150.334 977 -22.9335 150.639 TC 14 168
1921092S14151 1921 20 SP EA NOT_NAMED 1921-04-05 21:00:00 TS -23.6397 150.707 main 0 0 ______P__P____ -1 -23.6443 150.616 983 -23.6351 150.798 TC 15 160
1921092S14151 1921 20 SP EA NOT_NAMED 1921-04-05 23:00:00 TS -24.0919 150.941 988 bom main 0 0 ______O__P____ -1 -24.1000 150.900 988 4 -24.0837 150.982 TC 15 154
1921092S14151 1921 20 SP EA NOT_NAMED 1921-04-06 00:00:00 TS -24.3049 151.061 main 0 0 ______P__O____ -1 -24.3098 151.021 -24.3000 151.100 TC 50 988 15 148
1921092S14151 1921 20 SP EA NOT_NAMED 1921-04-06 03:00:00 TS -24.9197 151.509 main 0 0 ______P__P____ -1 -24.9236 151.475 -24.9157 151.544 TC 15 142
1921092S14151 1921 20 SP EA NOT_NAMED 1921-04-06 06:00:00 TS -25.5000 152.100 bom main 0 0 ______O__O____ -1 -25.5000 152.100 -25.5000 152.100 TC 16 133
1921092S14151 1921 20 SP EA NOT_NAMED 1921-04-06 09:00:00 TS -26.0341 152.825 main 0 0 ______P__P____ -1 -26.0316 152.912 -26.0366 152.739 TC 17 128
1921092S14151 1921 20 SP EA NOT_NAMED 1921-04-06 10:00:00 TS -26.2026 153.084 bom main 0 0 ______O__P____ -1 -26.2000 153.200 -26.2052 152.967 TC 17 126
1921092S14151 1921 20 SP EA NOT_NAMED 1921-04-06 12:00:00 TS -26.5409 153.602 main 49 49 ______P__P____ -1 -26.5534 153.759 -26.5284 153.445 TC 17 125
1921092S14151 1921 20 SP EA NOT_NAMED 1921-04-06 15:00:00 TS -27.0282 154.401 main 119 117 ______P__P____ -1 -27.0735 154.596 -26.9829 154.206 TC 17 123
1921092S14151 1921 20 SP EA NOT_NAMED 1921-04-06 18:00:00 TS -27.4819 155.207 main 175 175 ______P__P____ -1 -27.5560 155.404 -27.4078 155.011 TC 17 121
1921092S14151 1921 20 SP EA NOT_NAMED 1921-04-06 21:00:00 TS -27.9033 156.020 main 237 237 ______P__P____ -1 -27.9726 156.151 -27.8108 155.846 TC 16 120
1921092S14151 1921 20 SP EA NOT_NAMED 1921-04-06 23:00:00 TS -28.1571 156.538 bom main 283 283 ______O__P____ -1 -28.2000 156.600 -28.0713 156.414 TC 15 119
1921092S14151 1921 20 SP EA NOT_NAMED 1921-04-07 00:00:00 TS -28.2767 156.785 main 313 313 ______P__O____ -1 -28.2958 156.806 -28.2000 156.700 TC 12 116
1921092S14151 1921 20 SP EA NOT_NAMED 1921-04-07 03:00:00 NR -28.5143 157.354 main 370 370 ______P_______ -1 -28.5143 157.354 TC 10 112
1921092S14151 1921 20 SP EA NOT_NAMED 1921-04-07 06:00:00 NR -28.6407 157.805 main 409 409 ______P_______ -1 -28.6407 157.805 TC 7 104
1921092S14151 1921 20 SP EA NOT_NAMED 1921-04-07 09:00:00 NR -28.6896 158.171 main 448 448 ______P_______ -1 -28.6896 158.171 TC 6 93
1921092S14151 1921 20 SP EA NOT_NAMED 1921-04-07 12:00:00 NR -28.6750 158.469 main 477 477 ______P_______ -1 -28.6750 158.469 TC 5 81
1921092S14151 1921 20 SP EA NOT_NAMED 1921-04-07 15:00:00 NR -28.6108 158.711 main 497 497 ______P_______ -1 -28.6108 158.711 TC 4 67
1921092S14151 1921 20 SP EA NOT_NAMED 1921-04-07 18:00:00 NR -28.5105 158.913 main 517 517 ______P_______ -1 -28.5105 158.913 4 56
1921092S14151 1921 20 SP EA NOT_NAMED 1921-04-07 21:00:00 NR -28.3878 159.089 main 537 537 ______P_______ -1 -28.3878 159.089 4 50
1921092S14151 1921 20 SP EA NOT_NAMED 1921-04-07 23:00:00 NR -28.3000 159.200 bom main 547 ______O_______ -1 -28.3000 159.200 4 48

デジタル台風データ・検索

IBTrACS Databaseについて

本データベースは、米国NOAAが公開する1842年以降の世界の熱帯低気圧のベストトラックデータアーカイブInternational Best Track Archive for Climate Stewardship (IBTrACS)を、ウェブで閲覧しやすい形式に変換したものです。

最終更新日:2021-10-19